메인 페이지
METAR-TAF:

METAR-TAF

공항 :

Afonsos

리우데자네이루, 리우데자네이루, 브라질

위도: 22-52S, 경도: 043-22W, 고도: 34m

현재 날씨관측

예보는 1 시간 21분 전, 23:00시(UTC)에 발표되었습니다.
동남동12kt
온도 26°C
습도 74%
기압 1016 hPa
시정 10km 이상
고도 3000ft 상공 구름 보통

METAR: SBAF 142300Z 11012KT 9999 SCT030 26/21 Q1016

시각: 21:21 (00:21 UTC)

예보

예보는 9 시간 21분 전, 15:00시(UTC)에 발표되었습니다.
예보 대상 시간: 14일 18시부터 15일 06시까지 (UTC)
7kt
시정 10km 이상
고도 2500ft 상공 구름 조금

TAF: SBAF 141500Z 1418/1506 10007KT 9999 FEW025 TX29/1418Z TN22/1505Z RMK PEC

4,000개 이상의 공항 관측 자료 및 예보 (METAR 및 TAF 보고).

지도상에서 검색 가능한 기상관측소가 노란 점과 빨간 점으로 표시되어 있습니다.

기상관측소 명을 보려면 표시 위로 마우스를 이동하세요.

날씨 관측과 예보를 보려면 클릭하세요.

지도 변경 : 확대하려면 엑스 표시가 있는 녹색 버튼, 축소하려면 빼기 표시가 있는 녹색 버튼, 다음 페이지의 지도를 보려면 녹색 화살표를 클릭하세요.


METAR-TAF: